createdAt,value
2023-02-17T00:02:16.114Z,10.20
2023-02-17T00:04:42.654Z,11.20
2023-02-17T00:07:09.272Z,8.73
2023-02-17T00:09:37.446Z,10.30
2023-02-17T00:12:04.187Z,8.73
2023-02-17T00:14:30.712Z,9.10
2023-02-17T00:16:57.245Z,14.63
2023-02-17T00:19:25.011Z,8.85
2023-02-17T00:22:00.443Z,8.38
2023-02-17T00:24:29.590Z,10.73
2023-02-17T00:26:56.565Z,8.57
2023-02-17T00:29:23.384Z,9.00
2023-02-17T00:31:52.109Z,8.10
2023-02-17T00:34:19.148Z,9.02
2023-02-17T00:36:46.076Z,8.35
2023-02-17T00:39:15.174Z,6.78
2023-02-17T00:41:42.353Z,9.45
2023-02-17T00:44:18.834Z,9.45
2023-02-17T00:46:46.440Z,7.22
2023-02-17T00:49:19.313Z,8.27
2023-02-17T00:51:46.618Z,8.20
2023-02-17T00:54:14.201Z,7.63
2023-02-17T00:56:41.010Z,10.02
2023-02-17T00:59:09.139Z,7.50
2023-02-17T01:01:36.627Z,9.98
2023-02-17T01:04:03.904Z,9.15
2023-02-17T01:06:36.333Z,8.55
2023-02-17T01:09:06.193Z,9.35
2023-02-17T01:11:34.142Z,10.77
2023-02-17T01:14:02.289Z,11.10
2023-02-17T01:16:35.280Z,8.52
2023-02-17T01:19:03.627Z,7.47
2023-02-17T01:21:31.243Z,8.32
2023-02-17T01:23:59.731Z,9.40
2023-02-17T01:26:28.320Z,9.38
2023-02-17T01:28:55.433Z,8.13
2023-02-17T01:31:23.295Z,9.20
2023-02-17T01:33:50.143Z,8.98
2023-02-17T01:36:18.978Z,7.85
2023-02-17T01:38:46.571Z,9.57
2023-02-17T01:41:14.150Z,11.10
2023-02-17T01:43:41.055Z,7.90
2023-02-17T01:46:09.292Z,9.63
2023-02-17T01:48:43.576Z,10.68
2023-02-17T01:51:26.339Z,8.52
2023-02-17T01:53:59.277Z,9.07
2023-02-17T01:56:28.075Z,10.43
2023-02-17T01:59:05.749Z,10.48
2023-02-17T02:01:32.751Z,10.20
2023-02-17T02:04:02.786Z,10.13
2023-02-17T02:06:31.298Z,9.27
2023-02-17T02:09:23.898Z,9.05
2023-02-17T02:11:51.498Z,9.32
2023-02-17T02:14:20.925Z,12.38
2023-02-17T02:17:07.261Z,8.77
2023-02-17T02:19:48.789Z,11.20
2023-02-17T02:22:33.312Z,11.30
2023-02-17T02:25:26.547Z,8.77
2023-02-17T02:28:21.026Z,12.68
2023-02-17T02:31:03.095Z,10.15
2023-02-17T02:33:50.196Z,10.10
2023-02-17T02:36:42.428Z,9.45
2023-02-17T02:39:21.049Z,9.65
2023-02-17T02:41:52.968Z,12.18
2023-02-17T02:44:21.791Z,11.25
2023-02-17T02:47:06.951Z,9.82
2023-02-17T02:49:36.571Z,10.07
2023-02-17T02:52:19.909Z,10.05
2023-02-17T02:54:57.593Z,9.02
2023-02-17T02:57:29.917Z,9.63
2023-02-17T03:00:18.314Z,9.10
2023-02-17T03:03:06.565Z,9.98
2023-02-17T03:05:55.374Z,9.13
2023-02-17T03:08:38.850Z,8.95
2023-02-17T03:11:05.679Z,10.18
2023-02-17T03:13:39.483Z,8.52
2023-02-17T03:18:35.498Z,9.43
2023-02-17T03:21:15.627Z,9.48
2023-02-17T03:23:42.187Z,8.57
2023-02-17T03:26:08.695Z,11.10
2023-02-17T03:28:35.221Z,8.82
2023-02-17T03:31:01.852Z,7.57
2023-02-17T03:33:28.393Z,8.23
2023-02-17T03:35:54.914Z,8.88
2023-02-17T03:38:21.467Z,8.05
2023-02-17T03:40:47.994Z,8.85
2023-02-17T03:43:17.890Z,9.38
2023-02-17T03:45:44.716Z,7.82
2023-02-17T03:48:11.203Z,9.32
2023-02-17T03:50:37.734Z,7.68
2023-02-17T03:53:05.182Z,7.32
2023-02-17T03:55:31.741Z,7.53
2023-02-17T03:57:58.293Z,8.05
2023-02-17T04:00:24.940Z,7.78
2023-02-17T04:02:51.479Z,7.15
2023-02-17T04:05:18.089Z,8.10
2023-02-17T04:07:44.633Z,7.80
2023-02-17T04:10:11.249Z,7.43
2023-02-17T04:12:37.730Z,7.70
2023-02-17T04:15:04.477Z,10.32
2023-02-17T04:17:30.976Z,8.20
2023-02-17T04:19:57.769Z,9.63
2023-02-17T04:22:24.405Z,6.95
2023-02-17T04:24:50.954Z,8.25
2023-02-17T04:27:17.465Z,9.10
2023-02-17T04:29:44.004Z,8.05
2023-02-17T04:32:10.527Z,6.85
2023-02-17T04:34:37.132Z,8.63
2023-02-17T04:37:03.846Z,8.55
2023-02-17T04:39:30.443Z,10.48
2023-02-17T04:41:56.966Z,7.88
2023-02-17T04:44:23.459Z,8.93
2023-02-17T04:46:50.048Z,9.23
2023-02-17T04:49:16.545Z,8.07
2023-02-17T04:51:43.091Z,8.45
2023-02-17T04:54:09.614Z,7.97
2023-02-17T04:56:36.091Z,9.63
2023-02-17T04:59:02.619Z,9.40
2023-02-17T05:01:29.175Z,7.63
2023-02-17T05:03:55.660Z,7.97
2023-02-17T05:06:22.340Z,7.72
2023-02-17T05:08:50.546Z,7.88
2023-02-17T05:11:17.006Z,7.40
2023-02-17T05:13:43.527Z,8.23
2023-02-17T05:16:10.288Z,9.32
2023-02-17T05:18:36.856Z,9.63
2023-02-17T05:21:03.513Z,7.95
2023-02-17T05:23:30.051Z,8.13
2023-02-17T05:25:56.522Z,8.93
2023-02-17T05:28:23.066Z,8.40
2023-02-17T05:30:50.126Z,10.10
2023-02-17T05:33:16.870Z,11.40
2023-02-17T05:35:43.364Z,9.73
2023-02-17T05:38:09.889Z,11.13
2023-02-17T05:40:36.466Z,10.38
2023-02-17T05:43:03.068Z,11.13
2023-02-17T05:45:29.588Z,9.48
2023-02-17T05:47:56.076Z,9.30
2023-02-17T05:50:22.587Z,12.73
2023-02-17T05:52:49.115Z,11.27
2023-02-17T05:55:15.782Z,10.23
2023-02-17T05:57:42.293Z,11.80
2023-02-17T06:00:09.346Z,12.77
2023-02-17T06:02:35.893Z,14.25
2023-02-17T06:05:02.548Z,13.15
2023-02-17T06:07:29.133Z,10.52
2023-02-17T06:09:55.633Z,13.85
2023-02-17T06:12:22.155Z,11.35
2023-02-17T06:14:48.854Z,11.35
2023-02-17T06:17:15.394Z,14.77
2023-02-17T06:19:41.944Z,12.68
2023-02-17T06:22:08.495Z,12.93
2023-02-17T06:24:34.975Z,13.95
2023-02-17T06:27:01.646Z,12.05
2023-02-17T06:29:28.154Z,12.73
2023-02-17T06:31:55.015Z,13.02
2023-02-17T06:34:21.589Z,14.55
2023-02-17T06:36:48.200Z,10.63
2023-02-17T06:39:14.799Z,11.80
2023-02-17T06:41:42.701Z,12.55
2023-02-17T06:44:09.372Z,11.85
2023-02-17T06:46:35.942Z,12.07
2023-02-17T06:49:02.577Z,10.45
2023-02-17T06:51:29.119Z,13.05
2023-02-17T06:53:56.161Z,11.55
2023-02-17T06:56:23.100Z,13.55
2023-02-17T06:58:50.162Z,10.88
2023-02-17T07:01:26.273Z,13.15
2023-02-17T07:03:53.800Z,13.10
2023-02-17T07:06:21.175Z,11.15
2023-02-17T07:08:47.670Z,12.55
2023-02-17T07:11:15.762Z,11.27
2023-02-17T07:13:43.302Z,14.27
2023-02-17T07:16:11.411Z,11.70
2023-02-17T07:18:38.132Z,11.77
2023-02-17T07:21:09.830Z,13.02
2023-02-17T07:23:37.177Z,12.75
2023-02-17T07:26:09.795Z,9.48
2023-02-17T07:28:37.367Z,10.02
2023-02-17T07:31:16.149Z,12.23
2023-02-17T07:33:43.797Z,11.73
2023-02-17T07:36:12.877Z,9.52
2023-02-17T07:38:40.213Z,11.90
2023-02-17T07:41:12.974Z,11.18
2023-02-17T07:43:39.521Z,11.35
2023-02-17T07:46:07.207Z,12.63
2023-02-17T07:48:34.157Z,11.35
2023-02-17T07:51:27.019Z,11.60
2023-02-17T07:53:53.652Z,9.80
2023-02-17T07:56:21.619Z,11.70
2023-02-17T07:58:49.051Z,12.32
2023-02-17T08:01:21.140Z,13.10
2023-02-17T08:03:48.917Z,10.50
2023-02-17T08:06:21.522Z,12.70
2023-02-17T08:09:07.778Z,13.32
2023-02-17T08:11:52.958Z,18.08
2023-02-17T08:14:25.111Z,18.20
2023-02-17T08:16:51.677Z,14.32
2023-02-17T08:19:18.360Z,13.90
2023-02-17T08:21:45.305Z,17.40
2023-02-17T08:24:12.317Z,15.82
2023-02-17T08:26:39.869Z,13.25
2023-02-17T08:29:06.391Z,16.05
2023-02-17T08:31:35.242Z,16.00
2023-02-17T08:34:04.524Z,15.75
2023-02-17T08:36:31.285Z,15.85
2023-02-17T08:38:58.470Z,16.52
2023-02-17T08:41:31.293Z,15.07
2023-02-17T08:43:59.683Z,17.33
2023-02-17T08:46:28.180Z,17.23
2023-02-17T08:48:54.990Z,17.00
2023-02-17T08:51:25.826Z,12.05
2023-02-17T08:53:54.428Z,12.65
2023-02-17T08:56:23.027Z,14.23
2023-02-17T08:58:49.926Z,14.63
2023-02-17T09:01:18.986Z,14.65
2023-02-17T09:03:47.271Z,15.05
2023-02-17T09:06:13.915Z,12.43
2023-02-17T09:08:41.002Z,12.73
2023-02-17T09:11:09.695Z,13.15
2023-02-17T09:13:36.504Z,11.65
2023-02-17T09:16:03.509Z,14.82
2023-02-17T09:18:30.371Z,11.32
2023-02-17T09:20:58.418Z,13.77
2023-02-17T09:23:25.152Z,10.50
2023-02-17T09:26:02.165Z,10.30
2023-02-17T09:28:28.682Z,12.77
2023-02-17T09:30:55.241Z,10.18
2023-02-17T09:33:21.781Z,9.00
2023-02-17T09:35:49.255Z,9.05
2023-02-17T09:38:16.460Z,9.32
2023-02-17T09:40:49.076Z,9.15
2023-02-17T09:43:18.793Z,11.45
2023-02-17T09:45:54.806Z,11.57
2023-02-17T09:48:26.886Z,12.20
2023-02-17T09:51:15.498Z,9.38
2023-02-17T09:54:26.782Z,11.07
2023-02-17T09:56:56.978Z,7.10
2023-02-17T09:59:55.889Z,9.60
2023-02-17T10:02:33.720Z,9.77
2023-02-17T10:05:06.130Z,11.60
2023-02-17T10:08:00.831Z,9.70
2023-02-17T10:10:51.577Z,6.82
2023-02-17T10:13:22.097Z,7.93
2023-02-17T10:15:51.922Z,7.65
2023-02-17T10:18:48.693Z,7.43
2023-02-17T10:21:23.785Z,8.00
2023-02-17T10:23:51.475Z,7.78
2023-02-17T10:26:23.918Z,6.82
2023-02-17T10:29:14.575Z,7.63
2023-02-17T10:32:00.610Z,5.72
2023-02-17T10:34:42.884Z,7.70
2023-02-17T10:37:22.348Z,7.28
2023-02-17T10:39:58.341Z,6.32
2023-02-17T10:42:32.349Z,7.30
2023-02-17T10:45:07.302Z,5.93
2023-02-17T10:47:36.886Z,6.13
2023-02-17T10:50:08.349Z,6.05
2023-02-17T10:52:39.399Z,6.03
2023-02-17T10:55:22.818Z,7.18
2023-02-17T10:57:58.746Z,6.85
2023-02-17T11:00:26.726Z,6.90
2023-02-17T11:02:54.055Z,5.82
2023-02-17T11:05:30.319Z,7.85
2023-02-17T11:08:01.413Z,7.38
2023-02-17T11:10:32.600Z,7.72
2023-02-17T11:13:00.154Z,5.63
2023-02-17T11:15:31.605Z,5.75
2023-02-17T11:18:01.349Z,4.15
2023-02-17T11:20:32.212Z,7.05
2023-02-17T11:23:04.775Z,7.93
2023-02-17T11:25:37.642Z,6.22
2023-02-17T11:28:12.988Z,5.97
2023-02-17T11:30:48.578Z,4.82
2023-02-17T11:33:20.158Z,6.38
2023-02-17T11:36:06.935Z,3.88
2023-02-17T11:38:43.119Z,5.05
2023-02-17T11:41:11.038Z,4.97
2023-02-17T11:43:39.808Z,4.82
2023-02-17T11:46:29.974Z,5.00
2023-02-17T11:49:41.610Z,5.22
2023-02-17T11:52:14.119Z,5.75
2023-02-17T11:54:58.678Z,5.35
2023-02-17T11:57:38.614Z,5.22
2023-02-17T12:00:24.912Z,6.45
2023-02-17T12:03:10.262Z,4.07
2023-02-17T12:05:51.676Z,4.00
2023-02-17T12:08:29.262Z,4.18
2023-02-17T12:11:08.150Z,5.22
2023-02-17T12:13:53.622Z,6.00
2023-02-17T12:16:48.496Z,7.15
2023-02-17T12:19:44.712Z,4.80
2023-02-17T12:22:40.691Z,5.93
2023-02-17T12:25:38.986Z,4.00
2023-02-17T12:28:34.438Z,6.40
2023-02-17T12:31:21.526Z,5.38
2023-02-17T12:33:56.884Z,2.78
2023-02-17T12:36:29.871Z,4.85
2023-02-17T12:39:11.489Z,8.05
2023-02-17T12:42:03.933Z,3.53
2023-02-17T12:44:35.306Z,5.47
2023-02-17T12:47:31.190Z,4.50
2023-02-17T12:50:19.559Z,4.57
2023-02-17T12:52:51.851Z,3.63
2023-02-17T12:55:23.124Z,4.68
2023-02-17T12:58:04.127Z,3.33
2023-02-17T13:00:39.264Z,4.03
2023-02-17T13:03:06.725Z,7.32
2023-02-17T13:05:42.225Z,3.72
2023-02-17T13:08:27.142Z,6.90
2023-02-17T13:11:10.908Z,5.65
2023-02-17T13:13:37.649Z,5.93
2023-02-17T13:16:06.330Z,5.32
2023-02-17T13:18:41.967Z,3.75
2023-02-17T13:21:32.354Z,3.65
2023-02-17T13:24:01.912Z,4.57
2023-02-17T13:26:36.744Z,7.07
2023-02-17T13:29:34.514Z,4.80
2023-02-17T13:32:07.474Z,4.85
2023-02-17T13:34:43.350Z,7.70
2023-02-17T13:37:46.301Z,7.47
2023-02-17T13:40:15.674Z,7.60
2023-02-17T13:42:47.767Z,6.88
2023-02-17T13:45:39.944Z,6.68
2023-02-17T13:48:30.889Z,3.28
2023-02-17T13:51:23.929Z,6.85
2023-02-17T13:53:50.767Z,4.97
2023-02-17T13:56:30.667Z,4.38
2023-02-17T13:59:18.295Z,3.53
2023-02-17T14:01:46.512Z,5.60
2023-02-17T14:04:24.487Z,6.57
2023-02-17T14:06:52.928Z,3.92
2023-02-17T14:09:30.611Z,6.80
2023-02-17T14:11:58.665Z,4.40
2023-02-17T14:14:30.926Z,4.75
2023-02-17T14:17:27.954Z,3.60
2023-02-17T14:19:54.657Z,3.38
2023-02-17T14:22:32.402Z,5.22
2023-02-17T14:25:14.591Z,8.27
2023-02-17T14:27:47.473Z,5.15
2023-02-17T14:30:27.353Z,6.90
2023-02-17T14:33:16.286Z,4.50
2023-02-17T14:36:00.495Z,4.80
2023-02-17T14:38:29.181Z,5.80
2023-02-17T14:40:58.725Z,6.82
2023-02-17T14:43:25.514Z,4.68
2023-02-17T14:45:52.052Z,6.22
2023-02-17T14:48:19.051Z,5.95
2023-02-17T14:50:46.607Z,3.80
2023-02-17T14:53:29.541Z,5.30
2023-02-17T14:56:02.560Z,7.53
2023-02-17T14:58:30.077Z,6.07
2023-02-17T15:00:56.990Z,6.32
2023-02-17T15:03:23.628Z,5.18
2023-02-17T15:05:50.591Z,4.57
2023-02-17T15:08:25.330Z,8.63
2023-02-17T15:10:51.861Z,4.20
2023-02-17T15:13:21.367Z,5.53
2023-02-17T15:15:49.389Z,5.88
2023-02-17T15:18:18.224Z,4.05
2023-02-17T15:20:47.871Z,4.15
2023-02-17T15:23:17.776Z,3.40
2023-02-17T15:25:45.519Z,7.40
2023-02-17T15:28:17.228Z,4.15
2023-02-17T15:30:48.594Z,6.97
2023-02-17T15:33:15.300Z,4.47
2023-02-17T15:35:41.971Z,4.75
2023-02-17T15:38:13.150Z,5.72
2023-02-17T15:40:41.178Z,5.68
2023-02-17T15:43:13.547Z,8.30
2023-02-17T15:45:40.166Z,9.68
2023-02-17T15:48:13.912Z,9.07
2023-02-17T15:50:40.506Z,7.47
2023-02-17T15:53:06.989Z,10.82
2023-02-17T15:55:33.944Z,10.95
2023-02-17T15:58:04.913Z,14.52
2023-02-17T16:00:34.063Z,12.27
2023-02-17T16:03:00.648Z,12.55
2023-02-17T16:05:29.462Z,15.95
2023-02-17T16:07:56.499Z,14.00
2023-02-17T16:10:27.234Z,15.30
2023-02-17T16:12:56.815Z,14.85
2023-02-17T16:15:25.355Z,19.80
2023-02-17T16:17:52.213Z,22.92
2023-02-17T16:20:26.196Z,17.33
2023-02-17T16:22:52.919Z,23.88
2023-02-17T16:25:21.555Z,20.50
2023-02-17T16:27:50.678Z,22.50
2023-02-17T16:30:21.873Z,20.15
2023-02-17T16:32:50.094Z,18.17
2023-02-17T16:35:26.149Z,17.88
2023-02-17T16:38:02.785Z,17.83
2023-02-17T16:40:31.616Z,20.65
2023-02-17T16:42:58.295Z,24.15
2023-02-17T16:45:28.500Z,21.23
2023-02-17T16:47:59.159Z,18.50
2023-02-17T16:50:35.281Z,19.23
2023-02-17T16:53:05.019Z,19.33
2023-02-17T16:55:34.435Z,20.80
2023-02-17T16:58:02.229Z,19.83
2023-02-17T17:00:31.468Z,21.83
2023-02-17T17:02:59.156Z,21.75
2023-02-17T17:05:28.652Z,22.58
2023-02-17T17:07:56.132Z,25.23
2023-02-17T17:10:31.479Z,23.77
2023-02-17T17:12:58.184Z,23.42
2023-02-17T17:15:25.346Z,27.98
2023-02-17T17:18:03.774Z,22.65
2023-02-17T17:20:34.176Z,26.05
2023-02-17T17:23:06.718Z,23.35
2023-02-17T17:25:36.996Z,23.95
2023-02-17T17:28:04.076Z,25.05
2023-02-17T17:30:33.117Z,21.20
2023-02-17T17:32:59.717Z,26.35
2023-02-17T17:35:27.118Z,21.73
2023-02-17T17:37:53.735Z,23.00
2023-02-17T17:40:23.286Z,23.65
2023-02-17T17:42:50.243Z,21.17
2023-02-17T17:45:17.042Z,30.02
2023-02-17T17:47:43.730Z,23.75
2023-02-17T17:50:17.583Z,21.23
2023-02-17T17:52:45.595Z,24.63
2023-02-17T17:55:13.689Z,21.55
2023-02-17T17:57:40.725Z,24.15
2023-02-17T18:00:09.622Z,21.88
2023-02-17T18:02:36.199Z,19.35
2023-02-17T18:05:02.786Z,24.30
2023-02-17T18:07:30.052Z,24.60
2023-02-17T18:09:56.779Z,26.35
2023-02-17T18:12:23.383Z,24.92
2023-02-17T18:14:53.249Z,29.90
2023-02-17T18:17:21.845Z,22.38
2023-02-17T18:19:49.273Z,24.05
2023-02-17T18:22:15.885Z,22.88
2023-02-17T18:24:42.525Z,23.42
2023-02-17T18:27:09.154Z,23.55
2023-02-17T18:29:36.816Z,24.85
2023-02-17T18:32:03.426Z,28.10
2023-02-17T18:34:30.019Z,23.63
2023-02-17T18:36:56.579Z,23.70
2023-02-17T18:39:23.121Z,27.90
2023-02-17T18:41:49.623Z,29.60
2023-02-17T18:44:16.347Z,31.85
2023-02-17T18:46:42.910Z,27.17
2023-02-17T18:49:09.911Z,31.55
2023-02-17T18:51:36.505Z,27.80
2023-02-17T18:54:04.928Z,28.25
2023-02-17T18:56:33.907Z,29.67
2023-02-17T18:59:00.823Z,32.95
2023-02-17T19:01:30.938Z,30.30
2023-02-17T19:03:58.854Z,27.35
2023-02-17T19:06:28.782Z,30.50
2023-02-17T19:08:55.623Z,27.83
2023-02-17T19:11:23.973Z,30.38
2023-02-17T19:13:51.536Z,30.42
2023-02-17T19:16:24.322Z,29.00
2023-02-17T19:18:51.661Z,25.52
2023-02-17T19:21:18.958Z,27.95
2023-02-17T19:23:45.752Z,25.58
2023-02-17T19:26:13.947Z,24.45
2023-02-17T19:28:41.216Z,27.65
2023-02-17T19:31:11.126Z,25.00
2023-02-17T19:33:37.989Z,24.10
2023-02-17T19:36:08.985Z,23.33
2023-02-17T19:38:36.190Z,21.33
2023-02-17T19:41:07.810Z,25.45
2023-02-17T19:43:34.471Z,21.50
2023-02-17T19:46:01.010Z,20.50
2023-02-17T19:48:27.874Z,23.60
2023-02-17T19:51:06.576Z,23.55
2023-02-17T19:53:34.212Z,19.83
2023-02-17T19:56:14.577Z,25.52
2023-02-17T19:58:43.035Z,24.50
2023-02-17T20:01:12.740Z,21.42
2023-02-17T20:03:39.733Z,19.90
2023-02-17T20:06:13.302Z,18.42
2023-02-17T20:08:40.361Z,21.98
2023-02-17T20:11:08.674Z,22.65
2023-02-17T20:13:45.325Z,22.20
2023-02-17T20:16:14.692Z,23.67
2023-02-17T20:18:44.705Z,25.27
2023-02-17T20:21:13.400Z,23.25
2023-02-17T20:23:40.006Z,26.38
2023-02-17T20:26:09.642Z,25.02
2023-02-17T20:28:36.357Z,26.13
2023-02-17T20:31:04.108Z,27.00
2023-02-17T20:33:31.710Z,29.17
2023-02-17T20:35:58.294Z,26.58
2023-02-17T20:38:24.873Z,29.25
2023-02-17T20:40:52.819Z,31.35
2023-02-17T20:43:20.590Z,33.00
2023-02-17T20:45:49.380Z,33.67
2023-02-17T20:48:16.551Z,28.50
2023-02-17T20:50:44.579Z,29.95
2023-02-17T20:53:11.557Z,31.48
2023-02-17T20:55:38.119Z,26.58
2023-02-17T20:58:04.987Z,30.20
2023-02-17T21:00:31.856Z,31.10
2023-02-17T21:02:58.429Z,29.80
2023-02-17T21:05:24.995Z,31.05
2023-02-17T21:07:52.318Z,28.83
2023-02-17T21:10:25.273Z,28.50
2023-02-17T21:12:51.739Z,32.20
2023-02-17T21:15:18.413Z,30.60
2023-02-17T21:17:45.357Z,29.15
2023-02-17T21:20:15.557Z,27.05
2023-02-17T21:22:42.111Z,28.40
2023-02-17T21:25:09.424Z,29.45
2023-02-17T21:27:36.720Z,32.03
2023-02-17T21:30:07.683Z,29.98
2023-02-17T21:32:34.267Z,32.00
2023-02-17T21:35:00.927Z,31.65
2023-02-17T21:37:27.719Z,31.17
2023-02-17T21:39:54.372Z,30.52
2023-02-17T21:42:41.099Z,34.17
2023-02-17T21:45:07.928Z,33.78
2023-02-17T21:47:34.509Z,32.33
2023-02-17T21:50:01.088Z,33.88
2023-02-17T21:52:27.585Z,35.75
2023-02-17T21:54:54.378Z,33.70
2023-02-17T21:57:21.041Z,36.30
2023-02-17T21:59:47.556Z,34.13
2023-02-17T22:02:14.034Z,35.45
2023-02-17T22:04:40.566Z,34.63
2023-02-17T22:07:07.079Z,37.60
2023-02-17T22:09:33.620Z,39.20
2023-02-17T22:12:00.313Z,37.72
2023-02-17T22:14:26.828Z,37.50
2023-02-17T22:16:53.383Z,37.97
2023-02-17T22:19:22.934Z,39.70
2023-02-17T22:21:50.617Z,39.05
2023-02-17T22:24:19.425Z,37.50
2023-02-17T22:26:46.035Z,41.70
2023-02-17T22:29:12.722Z,36.10
2023-02-17T22:31:39.694Z,39.05
2023-02-17T22:34:09.750Z,38.88
2023-02-17T22:36:37.087Z,38.80
2023-02-17T22:39:05.488Z,36.45
2023-02-17T22:41:33.331Z,38.60
2023-02-17T22:44:01.157Z,36.60
2023-02-17T22:46:27.710Z,39.85
2023-02-17T22:48:55.829Z,39.17
2023-02-17T22:51:25.318Z,38.20
2023-02-17T22:53:52.266Z,40.15
2023-02-17T22:56:19.558Z,37.58
2023-02-17T22:58:46.122Z,38.35
2023-02-17T23:01:14.179Z,36.80
2023-02-17T23:03:42.142Z,39.25
2023-02-17T23:06:13.558Z,36.03
2023-02-17T23:08:40.227Z,38.30
2023-02-17T23:11:08.525Z,40.22
2023-02-17T23:13:36.279Z,40.25
2023-02-17T23:16:03.488Z,39.38
2023-02-17T23:18:31.997Z,40.95
2023-02-17T23:20:58.926Z,39.65
2023-02-17T23:23:26.250Z,37.03
2023-02-17T23:25:55.105Z,35.53
2023-02-17T23:28:24.417Z,35.47
2023-02-17T23:30:51.768Z,36.50
2023-02-17T23:33:20.647Z,34.33
2023-02-17T23:35:47.718Z,40.95
2023-02-17T23:38:17.962Z,36.72
2023-02-17T23:40:50.544Z,36.92
2023-02-17T23:43:17.944Z,37.78
2023-02-17T23:45:44.611Z,36.47
2023-02-17T23:48:11.810Z,36.58
2023-02-17T23:50:38.477Z,36.20
2023-02-17T23:53:05.428Z,32.80
2023-02-17T23:55:31.996Z,31.45
2023-02-17T23:58:00.514Z,36.33
